Time;durP1;ratioP1;P1;durP2;ratioP2;P2;SDS_P1;SDS_P2;PMS_P1;PMS_P2;Temp;Humidity;BMP_temperature;BMP_pressure;BME280_temperature;BME280_humidity;BME280_pressure;Samples;Min_cycle;Max_cycle;Signal;HPM_P1;HPM_P2
2024/04/10 00:00:59;;;;;;;;;;;;;;;9.66;63.08;93126.13;5449303;26;19929;-72
2024/04/10 00:03:24;;;;;;;;;;;;;;;9.65;63.83;93128.88;5449394;26;19937;-73
2024/04/10 00:05:59;;;;;;;;;;;;;;;9.60;63.54;93121.81;5453838;26;19977;-71
2024/04/10 00:08:25;;;;;;;;;;;;;;;9.58;63.15;93122.00;5452895;26;19940;-70
2024/04/10 00:10:50;;;;;;;;;;;;;;;9.58;63.99;93122.00;5449212;26;20547;-70
2024/04/10 00:13:16;;;;;;;;;;;;;;;9.56;63.99;93124.00;5452467;26;20347;-70
2024/04/10 00:15:42;;;;;;;;;;;;;;;9.56;63.46;93115.50;5448846;26;19928;-70
2024/04/10 00:18:07;;;;;;;;;;;;;;;9.52;63.44;93114.34;5458037;26;19928;-71
2024/04/10 00:20:32;;;;;;;;;;;;;;;9.50;63.75;93117.13;5472017;26;21092;-70
2024/04/10 00:22:57;;;;;;;;;;;;;;;9.47;64.63;93113.22;5451114;26;19932;-70
2024/04/10 00:25:23;;;;;;;;;;;;;;;9.48;64.03;93111.41;5448486;26;19935;-73
2024/04/10 00:27:48;;;;;;;;;;;;;;;9.48;64.62;93113.97;5447434;26;19940;-73
2024/04/10 00:30:14;;;;;;;;;;;;;;;9.47;64.99;93117.53;5452768;26;19960;-73
2024/04/10 00:32:39;;;;;;;;;;;;;;;9.44;64.80;93112.84;5448961;26;20827;-73
2024/04/10 00:35:04;;;;;;;;;;;;;;;9.44;65.28;93118.72;5449026;26;19956;-73
2024/04/10 00:37:30;;;;;;;;;;;;;;;9.44;65.38;93116.16;5457330;26;19936;-73
2024/04/10 00:39:55;;;;;;;;;;;;;;;9.40;65.86;93119.34;5451104;26;20005;-73
2024/04/10 00:42:22;;;;;;;;;;;;;;;9.37;65.46;93112.84;5448381;26;19955;-73
2024/04/10 00:44:51;;;;;;;;;;;;;;;9.31;65.46;93105.97;5449276;26;20327;-73
2024/04/10 00:47:17;;;;;;;;;;;;;;;9.28;65.72;93111.50;5455691;26;20389;-72
2024/04/10 00:49:43;;;;;;;;;;;;;;;9.29;65.80;93106.19;5448437;26;19929;-73
2024/04/10 00:52:08;;;;;;;;;;;;;;;9.23;65.82;93104.44;5452391;26;19929;-72
2024/04/10 00:54:34;;;;;;;;;;;;;;;9.24;65.95;93100.88;5447932;26;19939;-72
2024/04/10 00:56:59;;;;;;;;;;;;;;;9.24;66.32;93113.69;5448113;26;19928;-73
2024/04/10 00:59:25;;;;;;;;;;;;;;;9.18;66.21;93107.63;5448883;26;19940;-73
2024/04/10 01:01:50;;;;;;;;;;;;;;;9.16;65.87;93104.44;5455735;26;20043;-73
2024/04/10 01:04:16;;;;;;;;;;;;;;;9.15;66.42;93107.22;5448351;26;20251;-72
2024/04/10 01:06:41;;;;;;;;;;;;;;;9.08;66.37;93102.91;5455756;26;20265;-73
2024/04/10 01:09:06;;;;;;;;;;;;;;;8.86;66.49;93087.03;5462970;26;19928;-73
2024/04/10 01:11:31;;;;;;;;;;;;;;;8.95;66.82;93111.41;5462047;26;19997;-73
2024/04/10 01:13:57;;;;;;;;;;;;;;;8.91;67.55;93104.34;5448438;26;19968;-73
2024/04/10 01:16:22;;;;;;;;;;;;;;;8.88;67.80;93102.19;5456614;26;19992;-73
2024/04/10 01:18:47;;;;;;;;;;;;;;;8.88;67.73;93104.75;5456146;26;20285;-73
2024/04/10 01:21:13;;;;;;;;;;;;;;;8.90;67.50;93107.91;5448426;26;20348;-73
2024/04/10 01:23:39;;;;;;;;;;;;;;;8.93;67.60;93102.34;5447748;26;20856;-73
2024/04/10 01:26:04;;;;;;;;;;;;;;;8.93;68.11;93103.16;5464798;26;19935;-73
2024/04/10 01:28:30;;;;;;;;;;;;;;;8.92;68.07;93091.34;5464518;26;19935;-73
2024/04/10 01:30:55;;;;;;;;;;;;;;;8.94;68.41;93091.91;5459988;26;19960;-73
2024/04/10 01:33:20;;;;;;;;;;;;;;;8.95;68.52;93088.34;5461942;26;19935;-73
2024/04/10 01:35:46;;;;;;;;;;;;;;;8.99;68.16;93093.09;5469086;26;19928;-73
2024/04/10 01:38:11;;;;;;;;;;;;;;;8.98;69.43;93089.72;5467488;26;20294;-73
2024/04/10 01:40:37;;;;;;;;;;;;;;;8.97;68.80;93084.81;5462095;26;19929;-73
2024/04/10 01:43:02;;;;;;;;;;;;;;;8.98;69.04;93083.84;5460515;26;19935;-73
2024/04/10 01:45:27;;;;;;;;;;;;;;;8.95;68.36;93088.34;5463720;26;19957;-73
2024/04/10 01:47:53;;;;;;;;;;;;;;;8.98;68.35;93079.47;5465091;26;19928;-73
2024/04/10 01:50:18;;;;;;;;;;;;;;;9.03;68.83;93078.88;5462964;26;20377;-73
2024/04/10 01:52:43;;;;;;;;;;;;;;;8.97;69.21;93077.91;5463568;26;19932;-73
2024/04/10 01:55:09;;;;;;;;;;;;;;;8.89;68.71;93078.16;5462455;26;19960;-72
2024/04/10 01:57:34;;;;;;;;;;;;;;;8.85;69.10;93082.09;5464981;26;19929;-73
2024/04/10 02:00:00;;;;;;;;;;;;;;;8.81;69.92;93084.28;5470188;26;19943;-72
2024/04/10 02:02:25;;;;;;;;;;;;;;;8.78;69.68;93077.78;5462880;26;19935;-72
2024/04/10 02:04:50;;;;;;;;;;;;;;;8.73;70.35;93075.03;5461037;26;19949;-72
2024/04/10 02:07:16;;;;;;;;;;;;;;;8.66;71.14;93074.28;5460281;26;19928;-73
2024/04/10 02:09:41;;;;;;;;;;;;;;;8.62;71.68;93065.41;5468669;26;19928;-73
2024/04/10 02:12:07;;;;;;;;;;;;;;;8.64;70.86;93066.78;5466648;26;19928;-73
2024/04/10 02:14:32;;;;;;;;;;;;;;;8.61;71.43;93077.41;5465113;26;19928;-73
2024/04/10 02:16:58;;;;;;;;;;;;;;;8.61;71.83;93072.28;5470693;26;19977;-72
2024/04/10 02:19:24;;;;;;;;;;;;;;;8.58;71.70;93072.72;5466500;26;20529;-73
2024/04/10 02:21:49;;;;;;;;;;;;;;;8.55;72.19;93068.78;5464475;26;19928;-72
2024/04/10 02:24:14;;;;;;;;;;;;;;;8.57;72.25;93072.91;5465977;26;19928;-73
2024/04/10 02:26:40;;;;;;;;;;;;;;;8.54;72.39;93074.09;5470730;26;19928;-73
2024/04/10 02:29:09;;;;;;;;;;;;;;;8.51;72.06;93065.00;5465621;26;19936;-73
2024/04/10 02:31:34;;;;;;;;;;;;;;;8.46;72.22;93067.38;5463403;26;20488;-73
2024/04/10 02:34:00;;;;;;;;;;;;;;;8.47;72.98;93075.84;5469856;26;19936;-73
2024/04/10 02:36:25;;;;;;;;;;;;;;;8.47;72.31;93075.84;5462260;26;19936;-72
2024/04/10 02:38:50;;;;;;;;;;;;;;;8.50;71.73;93073.69;5477784;26;19936;-72
2024/04/10 02:41:16;;;;;;;;;;;;;;;8.46;71.68;93075.06;5467420;26;19940;-73
2024/04/10 02:43:41;;;;;;;;;;;;;;;8.42;72.07;93076.44;5471496;26;20256;-72
2024/04/10 02:46:06;;;;;;;;;;;;;;;8.34;72.09;93076.66;5469627;26;19928;-72
2024/04/10 02:48:31;;;;;;;;;;;;;;;8.25;72.01;93081.97;5470867;26;20340;-72
2024/04/10 02:50:57;;;;;;;;;;;;;;;8.16;72.74;93080.59;5468861;26;20280;-72
2024/04/10 02:53:23;;;;;;;;;;;;;;;8.17;72.23;93082.19;5461828;26;20465;-72
2024/04/10 02:55:49;;;;;;;;;;;;;;;8.09;72.56;93074.69;5472373;26;19934;-72
2024/04/10 02:58:15;;;;;;;;;;;;;;;8.10;72.51;93073.72;5471587;26;19928;-72
2024/04/10 03:00:43;;;;;;;;;;;;;;;8.05;72.85;93076.84;5471503;26;20013;-72
2024/04/10 03:03:09;;;;;;;;;;;;;;;7.99;73.11;93075.88;5472678;26;19932;-72
2024/04/10 03:05:34;;;;;;;;;;;;;;;7.96;73.15;93076.28;5462358;26;19928;-72
2024/04/10 03:07:59;;;;;;;;;;;;;;;7.92;72.83;93081.97;5473344;26;20003;-72
2024/04/10 03:10:25;;;;;;;;;;;;;;;7.87;73.07;93078.22;5468859;26;19972;-72
2024/04/10 03:12:50;;;;;;;;;;;;;;;7.87;73.41;93085.13;5472064;26;19936;-72
2024/04/10 03:15:16;;;;;;;;;;;;;;;7.82;73.36;93082.38;5466847;26;20005;-72
2024/04/10 03:17:42;;;;;;;;;;;;;;;7.78;73.62;93081.19;5470296;26;20079;-72
2024/04/10 03:20:08;;;;;;;;;;;;;;;7.76;73.71;93078.81;5473983;26;19935;-72
2024/04/10 03:22:34;;;;;;;;;;;;;;;7.76;73.72;93081.38;5472585;26;20261;-72
2024/04/10 03:24:59;;;;;;;;;;;;;;;7.73;74.38;93081.78;5469305;26;19936;-72
2024/04/10 03:27:25;;;;;;;;;;;;;;;7.70;74.14;93082.16;5472480;26;19929;-72
2024/04/10 03:29:50;;;;;;;;;;;;;;;7.72;73.39;93082.75;5471120;26;19928;-72
2024/04/10 03:32:15;;;;;;;;;;;;;;;7.69;74.07;93078.78;5469771;26;19963;-72
2024/04/10 03:34:41;;;;;;;;;;;;;;;7.69;73.98;93083.13;5465980;26;19928;-72
2024/04/10 03:37:06;;;;;;;;;;;;;;;7.64;73.80;93081.16;5471377;26;19964;-71
2024/04/10 03:39:31;;;;;;;;;;;;;;;7.64;73.53;93082.94;5467426;26;20360;-71
2024/04/10 03:41:57;;;;;;;;;;;;;;;7.63;73.77;93089.81;5470916;26;20361;-71
2024/04/10 03:44:22;;;;;;;;;;;;;;;7.59;73.51;93081.75;5468872;26;20859;-71
2024/04/10 03:46:48;;;;;;;;;;;;;;;7.58;74.59;93079.38;5472223;26;19928;-72
2024/04/10 03:49:13;;;;;;;;;;;;;;;7.48;74.35;93083.09;5468753;26;19928;-72
2024/04/10 03:51:38;;;;;;;;;;;;;;;7.51;75.03;93086.25;5464769;26;20003;-72
2024/04/10 03:54:04;;;;;;;;;;;;;;;7.44;74.86;93094.69;5468673;26;19928;-72
2024/04/10 03:56:30;;;;;;;;;;;;;;;7.40;74.69;93095.28;5465047;26;19928;-72
2024/04/10 03:58:55;;;;;;;;;;;;;;;7.38;74.80;93097.22;5474346;26;19936;-72
2024/04/10 04:01:20;;;;;;;;;;;;;;;7.40;74.10;93096.03;5462826;26;19928;-72
2024/04/10 04:03:46;;;;;;;;;;;;;;;7.40;74.63;93096.03;5449098;26;19928;-72
2024/04/10 04:06:11;;;;;;;;;;;;;;;7.38;74.18;93099.78;5457834;26;20356;-72
2024/04/10 04:08:36;;;;;;;;;;;;;;;7.36;74.94;93102.50;5454937;26;20360;-73
2024/04/10 04:11:04;;;;;;;;;;;;;;;7.37;75.08;93096.44;5457356;26;19929;-72
2024/04/10 04:13:29;;;;;;;;;;;;;;;7.39;74.82;93098.78;5462933;26;19936;-72
2024/04/10 04:15:55;;;;;;;;;;;;;;;7.41;75.81;93099.41;5468984;26;20348;-72
2024/04/10 04:18:20;;;;;;;;;;;;;;;7.44;75.21;93096.44;5448969;26;19928;-72
2024/04/10 04:20:46;;;;;;;;;;;;;;;7.45;75.95;93092.94;5454729;26;19932;-72
2024/04/10 04:23:11;;;;;;;;;;;;;;;7.46;76.63;93095.28;5460713;26;20019;-72
2024/04/10 04:25:36;;;;;;;;;;;;;;;7.46;75.78;93095.28;5463530;26;19936;-72
2024/04/10 04:28:02;;;;;;;;;;;;;;;7.51;75.35;93086.25;5458825;26;19936;-72
2024/04/10 04:30:27;;;;;;;;;;;;;;;7.57;75.49;93093.94;5463280;26;19932;-72
2024/04/10 04:32:53;;;;;;;;;;;;;;;7.56;76.80;93091.56;5471474;26;19934;-72
2024/04/10 04:35:19;;;;;;;;;;;;;;;7.58;75.70;93089.59;5457612;26;19928;-72
2024/04/10 04:37:45;;;;;;;;;;;;;;;7.57;76.32;93086.28;5453040;26;19957;-72
2024/04/10 04:40:11;;;;;;;;;;;;;;;7.60;76.17;93090.97;5457181;26;20360;-72
2024/04/10 04:42:37;;;;;;;;;;;;;;;7.62;75.88;93096.69;5454912;26;19936;-72
2024/04/10 04:45:03;;;;;;;;;;;;;;;7.63;75.52;93097.47;5463349;26;20258;-72
2024/04/10 04:47:28;;;;;;;;;;;;;;;7.62;75.95;93099.25;5459882;26;19936;-72
2024/04/10 04:49:54;;;;;;;;;;;;;;;7.67;75.45;93103.78;5450512;26;20291;-72
2024/04/10 04:52:19;;;;;;;;;;;;;;;7.71;75.28;93102.41;5455618;26;20353;-72
2024/04/10 04:54:44;;;;;;;;;;;;;;;7.75;76.24;93102.81;5449437;26;19949;-72
2024/04/10 04:57:12;;;;;;;;;;;;;;;7.79;75.74;93101.44;5463575;26;19935;-72
2024/04/10 04:59:37;;;;;;;;;;;;;;;7.93;74.82;93099.69;5482089;26;20259;-72
2024/04/10 05:02:03;;;;;;;;;;;;;;;8.04;75.31;93095.75;5453072;26;19936;-72
2024/04/10 05:07:12;;;;;;;;;;;;;;;8.37;74.80;93106.97;5456359;26;19934;-72
2024/04/10 05:09:38;;;;;;;;;;;;;;;8.58;73.74;93100.06;5452499;26;19929;-72
2024/04/10 05:12:03;;;;;;;;;;;;;;;8.74;72.42;93109.91;5448479;26;19940;-72
2024/04/10 05:14:28;;;;;;;;;;;;;;;8.90;72.66;93105.34;5481958;26;20347;-72
2024/04/10 05:16:54;;;;;;;;;;;;;;;9.07;71.01;93111.59;5477581;26;19936;-72
2024/04/10 05:19:19;;;;;;;;;;;;;;;9.25;70.95;93112.69;5450751;26;20276;-72
2024/04/10 05:21:44;;;;;;;;;;;;;;;9.46;69.72;93105.72;5446625;26;19960;-73
2024/04/10 05:24:10;;;;;;;;;;;;;;;9.62;70.83;93109.56;5448769;26;19936;-73
2024/04/10 05:26:35;;;;;;;;;;;;;;;9.81;69.70;93109.66;5452340;26;20336;-73
2024/04/10 05:29:01;;;;;;;;;;;;;;;10.00;69.39;93108.75;5448566;26;19936;-73
2024/04/10 05:31:26;;;;;;;;;;;;;;;10.23;68.01;93114.31;5448347;26;19936;-73
2024/04/10 05:33:52;;;;;;;;;;;;;;;10.41;69.19;93114.34;5462740;26;19928;-73
2024/04/10 05:36:17;;;;;;;;;;;;;;;10.66;66.13;93115.38;5455630;26;19956;-73
2024/04/10 05:38:43;;;;;;;;;;;;;;;10.82;66.12;93112.25;5468850;26;20024;-72
2024/04/10 05:41:08;;;;;;;;;;;;;;;10.92;64.98;93109.16;5449970;26;19939;-72
2024/04/10 05:43:33;;;;;;;;;;;;;;;11.16;65.55;93114.44;5454964;26;20371;-72
2024/04/10 05:45:59;;;;;;;;;;;;;;;11.27;65.66;93122.44;5471851;26;19928;-73
2024/04/10 05:48:25;;;;;;;;;;;;;;;11.03;66.36;93124.88;5450499;26;19943;-72
2024/04/10 05:50:59;;;;;;;;;;;;;;;11.02;65.00;93121.50;5448241;26;19928;-72
2024/04/10 05:53:25;;;;;;;;;;;;;;;11.12;66.37;93125.38;5451335;26;19964;-72
2024/04/10 05:55:50;;;;;;;;;;;;;;;11.21;67.39;93124.09;5456127;26;19928;-72
2024/04/10 05:58:15;;;;;;;;;;;;;;;11.27;67.67;93117.28;5447752;26;19964;-72
2024/04/10 06:00:41;;;;;;;;;;;;;;;11.72;65.82;93118.72;5447049;26;20272;-72
2024/04/10 06:03:06;;;;;;;;;;;;;;;11.88;64.51;93120.69;5480126;26;20256;-72
2024/04/10 06:05:32;;;;;;;;;;;;;;;12.19;63.74;93118.09;5455051;26;20307;-72
2024/04/10 06:07:57;;;;;;;;;;;;;;;12.40;62.37;93121.94;5458180;26;19935;-73
2024/04/10 06:10:22;;;;;;;;;;;;;;;12.78;61.84;93114.75;5447653;26;19936;-72
2024/04/10 06:12:51;;;;;;;;;;;;;;;12.97;60.52;93119.78;5449664;26;20450;-72
2024/04/10 06:15:17;;;;;;;;;;;;;;;13.19;58.65;93116.63;5480765;26;20325;-72
2024/04/10 06:17:42;;;;;;;;;;;;;;;13.66;58.96;93122.66;5462796;26;19936;-72
2024/04/10 06:20:11;;;;;;;;;;;;;;;14.06;57.57;93116.63;5447648;26;19936;-73
2024/04/10 06:22:36;;;;;;;;;;;;;;;14.45;53.64;93120.34;5451473;26;19928;-72
2024/04/10 06:25:01;;;;;;;;;;;;;;;14.76;53.08;93120.81;5447850;26;19935;-72
2024/04/10 06:27:27;;;;;;;;;;;;;;;15.09;50.13;93125.13;5450559;26;20399;-72
2024/04/10 06:29:52;;;;;;;;;;;;;;;15.38;49.99;93124.19;5448670;26;19928;-72
2024/04/10 06:32:17;;;;;;;;;;;;;;;15.55;50.04;93123.34;5447813;26;19933;-72
2024/04/10 06:34:43;;;;;;;;;;;;;;;15.92;49.85;93127.06;5449788;26;20716;-72
2024/04/10 06:37:08;;;;;;;;;;;;;;;16.29;49.09;93127.16;5477798;26;19928;-72
2024/04/10 06:39:34;;;;;;;;;;;;;;;16.27;47.40;93121.47;5479362;26;19947;-73
2024/04/10 06:42:00;;;;;;;;;;;;;;;16.29;47.32;93127.16;5475312;26;19940;-72
2024/04/10 06:44:25;;;;;;;;;;;;;;;16.77;47.36;93123.88;5456102;26;19934;-72
2024/04/10 06:46:50;;;;;;;;;;;;;;;17.12;46.92;93128.78;5447785;26;20022;-73
2024/04/10 06:49:16;;;;;;;;;;;;;;;17.58;47.68;93121.16;5449952;26;19996;-73
2024/04/10 06:51:41;;;;;;;;;;;;;;;18.02;45.75;93119.19;5447161;26;20009;-72
2024/04/10 06:54:06;;;;;;;;;;;;;;;18.45;45.16;93123.38;5455023;26;19997;-72
2024/04/10 06:56:32;;;;;;;;;;;;;;;18.61;43.11;93117.13;5447145;26;19929;-72
2024/04/10 06:58:58;;;;;;;;;;;;;;;18.94;43.13;93106.41;5451014;26;20001;-72
2024/04/10 07:01:24;;;;;;;;;;;;;;;18.43;43.43;93113.25;5455410;26;19935;-72
2024/04/10 07:03:49;;;;;;;;;;;;;;;18.58;42.84;93104.66;5464518;26;19928;-72
2024/04/10 07:06:15;;;;;;;;;;;;;;;18.34;42.43;93110.41;5463151;26;20352;-72
2024/04/10 07:08:45;;;;;;;;;;;;;;;18.65;42.35;93083.56;5450472;26;19928;-73
2024/04/10 07:11:11;;;;;;;;;;;;;;;18.72;41.85;93110.09;5457997;26;19936;-72
2024/04/10 07:13:39;;;;;;;;;;;;;;;18.36;42.51;93117.91;5446209;26;19928;-72
2024/04/10 07:16:05;;;;;;;;;;;;;;;18.49;42.87;93119.22;5444003;26;20248;-73
2024/04/10 07:18:31;;;;;;;;;;;;;;;18.44;41.55;93114.81;5449780;26;19935;-73
2024/04/10 07:21:07;;;;;;;;;;;;;;;18.49;42.34;93101.81;5446628;26;20381;-72
2024/04/10 07:23:33;;;;;;;;;;;;;;;18.49;42.85;93101.00;5446763;26;19937;-72
2024/04/10 07:26:15;;;;;;;;;;;;;;;18.88;41.61;93104.88;5446656;26;19935;-72
2024/04/10 07:28:41;;;;;;;;;;;;;;;19.22;41.53;93099.84;5446252;26;19936;-72
2024/04/10 07:31:10;;;;;;;;;;;;;;;18.93;40.14;93107.47;5450350;26;20330;-72
2024/04/10 07:33:36;;;;;;;;;;;;;;;19.15;40.95;93109.75;5445958;26;19968;-72
2024/04/10 07:36:11;;;;;;;;;;;;;;;19.79;42.55;93105.81;5448133;26;20535;-72
2024/04/10 07:38:37;;;;;;;;;;;;;;;20.25;41.64;93105.56;5466733;26;19927;-72
2024/04/10 07:41:02;;;;;;;;;;;;;;;20.73;40.10;93100.75;5450710;26;19935;-72
2024/04/10 07:43:28;;;;;;;;;;;;;;;20.63;39.34;93106.81;5482049;26;19935;-72
2024/04/10 07:45:53;;;;;;;;;;;;;;;20.00;39.33;93114.34;5476661;26;19956;-70
2024/04/10 07:48:18;;;;;;;;;;;;;;;20.43;40.55;93105.94;5474534;26;19936;-69
2024/04/10 07:50:44;;;;;;;;;;;;;;;20.67;41.55;93113.84;5470301;26;19928;-69
2024/04/10 07:53:09;;;;;;;;;;;;;;;20.25;40.25;93107.38;5472344;26;19932;-70
2024/04/10 07:55:34;;;;;;;;;;;;;;;20.06;41.19;93105.44;5470870;26;19928;-70
2024/04/10 07:58:00;;;;;;;;;;;;;;;20.70;42.12;93095.00;5453867;26;20728;-70
2024/04/10 08:00:26;;;;;;;;;;;;;;;21.21;39.20;93106.00;5449529;26;20267;-70
2024/04/10 08:02:51;;;;;;;;;;;;;;;21.75;39.48;93098.06;5452419;26;20253;-70
2024/04/10 08:05:16;;;;;;;;;;;;;;;;;;5451715;26;19935;-70
2024/04/10 08:07:41;;;;;;;;;;;;;;;22.08;38.52;93102.56;5463235;26;19928;-70
2024/04/10 08:10:08;;;;;;;;;;;;;;;22.38;38.90;93105.78;5461983;26;19928;-70
2024/04/10 08:12:34;;;;;;;;;;;;;;;22.78;38.98;93104.66;5458614;26;20257;-70
2024/04/10 08:14:59;;;;;;;;;;;;;;;22.95;37.80;93101.47;5453069;26;19939;-70
2024/04/10 08:17:25;;;;;;;;;;;;;;;23.29;38.71;93100.28;5457199;26;19940;-70
2024/04/10 08:19:53;;;;;;;;;;;;;;;23.64;37.96;93101.75;5453622;26;19935;-70
2024/04/10 08:22:18;;;;;;;;;;;;;;;22.97;36.29;93104.59;5454426;26;19929;-70
2024/04/10 08:24:44;;;;;;;;;;;;;;;22.60;37.50;93104.44;5461654;26;19996;-70
2024/04/10 08:27:09;;;;;;;;;;;;;;;22.92;38.93;93102.06;5455882;26;19975;-70
2024/04/10 08:29:34;;;;;;;;;;;;;;;23.41;38.39;93097.22;5453282;26;19935;-70
2024/04/10 08:32:00;;;;;;;;;;;;;;;23.73;35.75;93103.38;5482594;26;20389;-70
2024/04/10 08:34:25;;;;;;;;;;;;;;;23.11;37.76;93104.59;5453467;26;20431;-70
2024/04/10 08:36:50;;;;;;;;;;;;;;;22.93;37.74;93111.47;5453343;26;19935;-70
2024/04/10 08:39:17;;;;;;;;;;;;;;;23.26;37.25;93110.59;5458625;26;19928;-70
2024/04/10 08:41:42;;;;;;;;;;;;;;;22.81;37.96;93107.47;5456703;26;19951;-70
2024/04/10 08:44:08;;;;;;;;;;;;;;;22.91;37.02;93109.13;5455106;26;19928;-70
2024/04/10 08:46:37;;;;;;;;;;;;;;;23.34;37.66;93109.94;5453165;26;19928;-71
2024/04/10 08:49:03;;;;;;;;;;;;;;;22.91;37.81;93080.31;5454780;26;20279;-70
2024/04/10 08:51:30;;;;;;;;;;;;;;;23.34;36.94;93108.09;5456851;26;19956;-70
2024/04/10 08:53:58;;;;;;;;;;;;;;;23.55;37.51;93109.56;5459026;26;19964;-70
2024/04/10 08:56:23;;;;;;;;;;;;;;;23.94;36.88;93105.59;5455541;26;19935;-70
2024/04/10 08:58:48;;;;;;;;;;;;;;;24.12;36.75;93103.88;5460793;26;19928;-70
2024/04/10 09:01:41;;;;;;;;;;;;;;;24.31;36.38;93099.53;5456192;26;20632;-70
2024/04/10 09:04:11;;;;;;;;;;;;;;;24.03;37.32;93101.16;5456551;26;20300;-70
2024/04/10 09:06:36;;;;;;;;;;;;;;;24.60;36.12;93106.19;5453149;26;19944;-70
2024/04/10 09:09:07;;;;;;;;;;;;;;;25.10;37.10;93105.25;5452854;26;19935;-70
2024/04/10 09:11:32;;;;;;;;;;;;;;;25.41;35.25;93099.13;5453549;26;19947;-70
2024/04/10 09:14:05;;;;;;;;;;;;;;;25.34;35.57;93102.22;5457195;26;20537;-70
2024/04/10 09:16:31;;;;;;;;;;;;;;;24.93;33.94;93101.47;5480698;26;19935;-70
2024/04/10 09:19:09;;;;;;;;;;;;;;;24.02;34.82;93104.88;5458160;26;19935;-70
2024/04/10 09:21:34;;;;;;;;;;;;;;;23.37;36.52;93098.88;5457399;26;19934;-70
2024/04/10 09:24:00;;;;;;;;;;;;;;;23.40;35.63;93106.16;5457137;26;19928;-70
2024/04/10 09:26:25;;;;;;;;;;;;;;;23.72;35.96;93111.53;5456380;26;19931;-70
2024/04/10 09:29:01;;;;;;;;;;;;;;;24.31;35.69;93100.31;5464192;26;19928;-70
2024/04/10 09:31:26;;;;;;;;;;;;;;;24.87;34.54;93099.25;5460284;26;20290;-70
2024/04/10 09:33:52;;;;;;;;;;;;;;;25.37;32.97;93098.22;5458600;26;19996;-70
2024/04/10 09:36:17;;;;;;;;;;;;;;;25.78;32.94;93091.03;5457493;26;20284;-70
2024/04/10 09:38:43;;;;;;;;;;;;;;;25.58;31.43;93089.75;5458167;26;20623;-70
2024/04/10 09:41:11;;;;;;;;;;;;;;;25.96;26.74;93096.31;5452551;26;20296;-70
2024/04/10 09:43:41;;;;;;;;;;;;;;;25.72;24.70;93098.31;5453066;26;19933;-70
2024/04/10 09:46:08;;;;;;;;;;;;;;;24.75;24.31;93092.69;5452043;26;20388;-70
2024/04/10 09:48:34;;;;;;;;;;;;;;;24.22;24.81;93096.84;5457308;26;20273;-70
2024/04/10 09:51:06;;;;;;;;;;;;;;;24.03;24.32;93088.03;5459210;26;19992;-70
2024/04/10 09:53:32;;;;;;;;;;;;;;;24.07;24.73;93090.84;5453152;26;19936;-70
2024/04/10 09:55:58;;;;;;;;;;;;;;;24.10;25.16;93087.66;5456921;26;19939;-70
2024/04/10 09:58:23;;;;;;;;;;;;;;;23.90;22.59;93091.50;5470358;26;19928;-70
2024/04/10 10:00:49;;;;;;;;;;;;;;;24.50;24.45;93087.00;5456917;26;20321;-70
2024/04/10 10:03:23;;;;;;;;;;;;;;;24.42;26.73;93085.88;5451823;26;19928;-70
2024/04/10 10:05:59;;;;;;;;;;;;;;;24.97;24.55;93088.50;5455178;26;19936;-70
2024/04/10 10:08:25;;;;;;;;;;;;;;;24.89;22.98;93081.34;5451571;26;20371;-71
2024/04/10 10:10:52;;;;;;;;;;;;;;;24.70;24.68;93087.56;5457269;26;19929;-70
2024/04/10 10:13:27;;;;;;;;;;;;;;;24.45;24.04;93083.72;5457860;26;19935;-70
2024/04/10 10:16:03;;;;;;;;;;;;;;;24.45;23.97;93075.84;5454418;26;19928;-71
2024/04/10 10:18:28;;;;;;;;;;;;;;;24.87;22.24;93084.28;5460048;26;19928;-71
2024/04/10 10:22:33;;;;;;;;;;;;;;;25.10;22.27;93073.69;5475509;25;19948;-71
2024/04/10 10:24:59;;;;;;;;;;;;;;;24.89;23.47;93076.88;5468750;26;21052;-71
2024/04/10 10:27:24;;;;;;;;;;;;;;;24.58;21.66;93082.09;5476044;26;19927;-71
2024/04/10 10:29:50;;;;;;;;;;;;;;;25.07;22.71;93072.47;5475875;26;19928;-71
2024/04/10 10:32:19;;;;;;;;;;;;;;;24.60;22.44;93072.06;5466149;26;19951;-71
2024/04/10 10:34:44;;;;;;;;;;;;;;;25.00;22.27;93071.34;5472071;26;20275;-71
2024/04/10 10:37:09;;;;;;;;;;;;;;;25.09;22.42;93072.91;5469870;26;19936;-71
2024/04/10 10:39:41;;;;;;;;;;;;;;;24.57;21.89;93077.94;5473454;26;19935;-71
2024/04/10 10:42:07;;;;;;;;;;;;;;;24.58;22.98;93074.22;5469138;26;19928;-71
2024/04/10 10:44:32;;;;;;;;;;;;;;;25.24;23.25;93072.81;5477530;26;19935;-71
2024/04/10 10:46:58;;;;;;;;;;;;;;;25.26;23.85;93073.28;5471860;26;19940;-71
2024/04/10 10:49:26;;;;;;;;;;;;;;;25.49;23.47;93079.19;5469802;26;19928;-71
2024/04/10 10:51:55;;;;;;;;;;;;;;;25.30;22.82;93072.38;5479063;26;19932;-71
2024/04/10 10:54:21;;;;;;;;;;;;;;;25.39;22.74;93067.13;5470754;26;19936;-71
2024/04/10 10:56:46;;;;;;;;;;;;;;;25.13;22.97;93070.44;5471209;26;19928;-71
2024/04/10 10:59:14;;;;;;;;;;;;;;;25.64;22.90;93072.75;5472897;26;20381;-71
2024/04/10 11:01:39;;;;;;;;;;;;;;;25.99;23.06;93061.47;5446580;26;19929;-71
2024/04/10 11:04:13;;;;;;;;;;;;;;;25.47;22.48;93071.59;5442878;26;19934;-71
2024/04/10 11:06:39;;;;;;;;;;;;;;;25.34;21.70;93070.69;5435895;26;19939;-71
2024/04/10 11:09:09;;;;;;;;;;;;;;;25.09;20.71;93075.53;5440529;26;20277;-71
2024/04/10 11:11:37;;;;;;;;;;;;;;;25.13;21.12;93069.69;5439026;26;19941;-71
2024/04/10 11:14:03;;;;;;;;;;;;;;;24.99;21.44;93082.94;5431825;26;20413;-71
2024/04/10 11:16:31;;;;;;;;;;;;;;;25.37;21.67;93071.13;5433173;26;19937;-71
2024/04/10 11:18:56;;;;;;;;;;;;;;;25.37;20.85;93065.88;5433165;26;19929;-71
2024/04/10 11:21:22;;;;;;;;;;;;;;;25.00;22.53;93066.88;5437657;26;19977;-71
2024/04/10 11:23:47;;;;;;;;;;;;;;;25.42;21.37;93065.75;5433378;26;21090;-71
2024/04/10 11:26:13;;;;;;;;;;;;;;;25.65;20.84;93068.28;5434414;26;20443;-71
2024/04/10 11:28:38;;;;;;;;;;;;;;;25.54;19.76;93076.47;5437130;26;20360;-71
2024/04/10 11:31:03;;;;;;;;;;;;;;;25.63;20.57;93070.44;5438289;26;21325;-71
2024/04/10 11:33:29;;;;;;;;;;;;;;;25.76;21.17;93064.25;5420683;26;19933;-71
2024/04/10 11:35:55;;;;;;;;;;;;;;;25.51;20.54;93057.84;5418860;26;19936;-71
2024/04/10 11:38:20;;;;;;;;;;;;;;;25.55;20.11;93074.63;5420179;26;19936;-71
2024/04/10 11:40:46;;;;;;;;;;;;;;;25.75;21.07;93060.09;5416659;26;19933;-71
2024/04/10 11:43:11;;;;;;;;;;;;;;;25.35;21.37;93058.28;5420409;26;19940;-71
2024/04/10 11:45:36;;;;;;;;;;;;;;;25.60;21.89;93058.69;5418825;26;19936;-71
2024/04/10 11:48:03;;;;;;;;;;;;;;;25.88;21.14;93053.88;5420868;26;19929;-71
2024/04/10 11:50:29;;;;;;;;;;;;;;;25.69;21.28;93054.19;5420503;26;19929;-71
2024/04/10 11:52:55;;;;;;;;;;;;;;;25.12;20.26;93055.75;5428946;26;19957;-70
2024/04/10 11:55:20;;;;;;;;;;;;;;;25.19;21.14;93060.59;5422382;26;21038;-71
2024/04/10 11:57:45;;;;;;;;;;;;;;;25.24;21.82;93049.16;5424785;26;19944;-71
2024/04/10 12:00:11;;;;;;;;;;;;;;;25.31;21.94;93049.47;5423794;26;20458;-71
2024/04/10 12:02:36;;;;;;;;;;;;;;;25.47;22.47;93044.56;5416443;26;19929;-71
2024/04/10 12:05:04;;;;;;;;;;;;;;;25.31;21.48;93047.63;5418903;26;20276;-71
2024/04/10 12:07:30;;;;;;;;;;;;;;;24.94;22.42;93045.22;5426075;26;20353;-71
2024/04/10 12:09:55;;;;;;;;;;;;;;;25.23;22.60;93030.00;5431894;26;19936;-71
2024/04/10 12:12:21;;;;;;;;;;;;;;;25.07;23.06;93035.66;5422165;26;20660;-71
2024/04/10 12:14:47;;;;;;;;;;;;;;;25.61;23.66;93039.94;5417627;26;20542;-71
2024/04/10 12:17:12;;;;;;;;;;;;;;;25.77;23.68;93013.19;5415851;26;19936;-71
2024/04/10 12:19:37;;;;;;;;;;;;;;;25.90;23.02;93032.53;5420541;26;19933;-71
2024/04/10 12:22:03;;;;;;;;;;;;;;;25.86;22.95;93042.13;5422842;26;19943;-71
2024/04/10 12:24:28;;;;;;;;;;;;;;;26.09;22.93;93036.69;5421235;26;19928;-71
2024/04/10 12:26:55;;;;;;;;;;;;;;;25.87;23.50;93030.53;5416892;26;19933;-72
2024/04/10 12:29:20;;;;;;;;;;;;;;;25.91;22.78;93025.41;5426531;26;19937;-71
2024/04/10 12:31:45;;;;;;;;;;;;;;;26.05;23.29;93028.66;5417823;26;19998;-71
2024/04/10 12:34:11;;;;;;;;;;;;;;;26.15;23.21;93033.59;5420982;26;20266;-71
2024/04/10 12:39:20;;;;;;;;;;;;;;;26.27;23.81;93037.47;5417628;26;19979;-71
2024/04/10 12:41:51;;;;;;;;;;;;;;;25.80;23.84;93032.84;5418990;26;19937;-71
2024/04/10 12:44:18;;;;;;;;;;;;;;;25.63;23.68;93028.38;5420555;26;19936;-71
2024/04/10 12:46:43;;;;;;;;;;;;;;;25.41;24.65;93030.78;5420900;26;19929;-71
2024/04/10 12:49:09;;;;;;;;;;;;;;;25.43;24.28;93031.25;5420448;26;20458;-71
2024/04/10 12:51:34;;;;;;;;;;;;;;;25.24;24.67;93026.28;5419178;26;19961;-71
2024/04/10 12:53:59;;;;;;;;;;;;;;;25.33;25.12;93026.28;5417343;26;19936;-71